sensor_id;sensor_type;location;lat;lon;timestamp;temperature;humidity
57709;SHT35;42558;52.388;13.390;2022-09-25T00:01:09;12.87;74.24
57709;SHT35;42558;52.388;13.390;2022-09-25T00:03:37;12.87;74.34
57709;SHT35;42558;52.388;13.390;2022-09-25T00:06:11;12.85;74.56
57709;SHT35;42558;52.388;13.390;2022-09-25T00:08:41;12.84;74.53
57709;SHT35;42558;52.388;13.390;2022-09-25T00:11:10;12.83;74.12
57709;SHT35;42558;52.388;13.390;2022-09-25T00:13:40;12.86;73.84
57709;SHT35;42558;52.388;13.390;2022-09-25T00:16:10;12.86;73.73
57709;SHT35;42558;52.388;13.390;2022-09-25T00:18:40;12.87;73.50
57709;SHT35;42558;52.388;13.390;2022-09-25T00:21:27;12.92;72.77
57709;SHT35;42558;52.388;13.390;2022-09-25T00:23:57;12.93;72.75
57709;SHT35;42558;52.388;13.390;2022-09-25T00:26:26;12.95;72.73
57709;SHT35;42558;52.388;13.390;2022-09-25T00:28:56;12.95;73.02
57709;SHT35;42558;52.388;13.390;2022-09-25T00:31:27;12.94;72.65
57709;SHT35;42558;52.388;13.390;2022-09-25T00:33:56;12.93;72.88
57709;SHT35;42558;52.388;13.390;2022-09-25T00:36:25;12.91;72.86
57709;SHT35;42558;52.388;13.390;2022-09-25T00:38:53;12.90;72.77
57709;SHT35;42558;52.388;13.390;2022-09-25T00:41:21;12.91;72.66
57709;SHT35;42558;52.388;13.390;2022-09-25T00:43:52;12.91;72.71
57709;SHT35;42558;52.388;13.390;2022-09-25T00:46:38;12.91;72.42
57709;SHT35;42558;52.388;13.390;2022-09-25T00:49:15;12.90;72.84
57709;SHT35;42558;52.388;13.390;2022-09-25T00:51:52;12.88;72.80
57709;SHT35;42558;52.388;13.390;2022-09-25T00:54:27;12.87;72.95
57709;SHT35;42558;52.388;13.390;2022-09-25T00:57:00;12.86;72.73
57709;SHT35;42558;52.388;13.390;2022-09-25T00:59:41;12.85;72.97
57709;SHT35;42558;52.388;13.390;2022-09-25T01:02:17;12.84;73.14
57709;SHT35;42558;52.388;13.390;2022-09-25T01:04:51;12.82;73.13
57709;SHT35;42558;52.388;13.390;2022-09-25T01:07:23;12.81;73.21
57709;SHT35;42558;52.388;13.390;2022-09-25T01:09:50;12.80;73.57
57709;SHT35;42558;52.388;13.390;2022-09-25T01:12:17;12.77;73.48
57709;SHT35;42558;52.388;13.390;2022-09-25T01:14:44;12.76;73.56
57709;SHT35;42558;52.388;13.390;2022-09-25T01:20:24;12.70;74.25
57709;SHT35;42558;52.388;13.390;2022-09-25T01:30:04;12.65;74.89
57709;SHT35;42558;52.388;13.390;2022-09-25T01:35:44;12.59;75.04
57709;SHT35;42558;52.388;13.390;2022-09-25T01:38:27;12.56;75.20
57709;SHT35;42558;52.388;13.390;2022-09-25T01:43:53;12.54;74.99
57709;SHT35;42558;52.388;13.390;2022-09-25T01:46:29;12.54;75.12
57709;SHT35;42558;52.388;13.390;2022-09-25T01:49:05;12.52;75.37
57709;SHT35;42558;52.388;13.390;2022-09-25T01:51:44;12.51;75.62
57709;SHT35;42558;52.388;13.390;2022-09-25T01:54:22;12.48;75.64
57709;SHT35;42558;52.388;13.390;2022-09-25T01:57:12;12.47;75.89
57709;SHT35;42558;52.388;13.390;2022-09-25T01:59:50;12.47;76.02
57709;SHT35;42558;52.388;13.390;2022-09-25T02:02:28;12.44;76.18
57709;SHT35;42558;52.388;13.390;2022-09-25T02:05:05;12.44;76.45
57709;SHT35;42558;52.388;13.390;2022-09-25T02:07:44;12.41;76.46
57709;SHT35;42558;52.388;13.390;2022-09-25T02:10:24;12.41;76.56
57709;SHT35;42558;52.388;13.390;2022-09-25T02:13:13;12.40;76.83
57709;SHT35;42558;52.388;13.390;2022-09-25T02:18:27;12.35;77.16
57709;SHT35;42558;52.388;13.390;2022-09-25T02:24:38;12.31;77.31
57709;SHT35;42558;52.388;13.390;2022-09-25T02:27:23;12.32;77.33
57709;SHT35;42558;52.388;13.390;2022-09-25T02:29:53;12.35;77.52
57709;SHT35;42558;52.388;13.390;2022-09-25T02:32:32;12.35;77.79
57709;SHT35;42558;52.388;13.390;2022-09-25T02:34:59;12.31;77.68
57709;SHT35;42558;52.388;13.390;2022-09-25T02:37:26;12.28;77.69
57709;SHT35;42558;52.388;13.390;2022-09-25T02:39:56;12.26;77.70
57709;SHT35;42558;52.388;13.390;2022-09-25T02:42:48;12.28;77.95
57709;SHT35;42558;52.388;13.390;2022-09-25T02:51:01;12.19;78.45
57709;SHT35;42558;52.388;13.390;2022-09-25T02:56:51;12.11;78.58
57709;SHT35;42558;52.388;13.390;2022-09-25T02:59:39;12.09;78.50
57709;SHT35;42558;52.388;13.390;2022-09-25T03:02:14;12.13;78.49
57709;SHT35;42558;52.388;13.390;2022-09-25T03:04:42;12.16;78.61
57709;SHT35;42558;52.388;13.390;2022-09-25T03:07:17;12.15;78.49
57709;SHT35;42558;52.388;13.390;2022-09-25T03:09:45;12.17;78.65
57709;SHT35;42558;52.388;13.390;2022-09-25T03:12:17;12.13;78.49
57709;SHT35;42558;52.388;13.390;2022-09-25T03:14:44;12.11;78.58
57709;SHT35;42558;52.388;13.390;2022-09-25T03:17:12;12.14;78.50
57709;SHT35;42558;52.388;13.390;2022-09-25T03:19:42;12.15;78.55
57709;SHT35;42558;52.388;13.390;2022-09-25T03:22:09;12.14;78.51
57709;SHT35;42558;52.388;13.390;2022-09-25T03:24:37;12.16;78.48
57709;SHT35;42558;52.388;13.390;2022-09-25T03:27:03;12.19;78.47
57709;SHT35;42558;52.388;13.390;2022-09-25T03:29:30;12.23;78.46
57709;SHT35;42558;52.388;13.390;2022-09-25T03:31:57;12.19;78.39
57709;SHT35;42558;52.388;13.390;2022-09-25T03:34:24;12.16;78.60
57709;SHT35;42558;52.388;13.390;2022-09-25T03:36:50;12.14;78.51
57709;SHT35;42558;52.388;13.390;2022-09-25T03:39:17;12.11;78.71
57709;SHT35;42558;52.388;13.390;2022-09-25T03:41:44;12.11;78.80
57709;SHT35;42558;52.388;13.390;2022-09-25T03:44:10;12.05;78.52
57709;SHT35;42558;52.388;13.390;2022-09-25T03:46:38;11.99;78.52
57709;SHT35;42558;52.388;13.390;2022-09-25T03:49:05;11.98;78.46
57709;SHT35;42558;52.388;13.390;2022-09-25T03:51:32;12.01;78.72
57709;SHT35;42558;52.388;13.390;2022-09-25T03:53:59;12.01;78.78
57709;SHT35;42558;52.388;13.390;2022-09-25T03:56:27;11.96;78.78
57709;SHT35;42558;52.388;13.390;2022-09-25T03:58:55;11.95;78.91
57709;SHT35;42558;52.388;13.390;2022-09-25T04:01:23;11.97;78.62
57709;SHT35;42558;52.388;13.390;2022-09-25T04:03:52;11.98;78.63
57709;SHT35;42558;52.388;13.390;2022-09-25T04:06:20;11.98;78.56
57709;SHT35;42558;52.388;13.390;2022-09-25T04:08:51;11.95;78.59
57709;SHT35;42558;52.388;13.390;2022-09-25T04:11:21;11.98;78.74
57709;SHT35;42558;52.388;13.390;2022-09-25T04:13:50;11.96;78.57
57709;SHT35;42558;52.388;13.390;2022-09-25T04:16:18;11.95;78.64
57709;SHT35;42558;52.388;13.390;2022-09-25T04:18:46;11.94;78.73
57709;SHT35;42558;52.388;13.390;2022-09-25T04:21:14;12.00;78.92
57709;SHT35;42558;52.388;13.390;2022-09-25T04:23:41;12.02;78.87
57709;SHT35;42558;52.388;13.390;2022-09-25T04:26:29;12.03;78.81
57709;SHT35;42558;52.388;13.390;2022-09-25T04:28:57;12.06;78.96
57709;SHT35;42558;52.388;13.390;2022-09-25T04:31:27;11.98;78.66
57709;SHT35;42558;52.388;13.390;2022-09-25T04:33:55;11.94;78.90
57709;SHT35;42558;52.388;13.390;2022-09-25T04:36:22;11.96;79.18
57709;SHT35;42558;52.388;13.390;2022-09-25T04:38:49;11.97;79.01
57709;SHT35;42558;52.388;13.390;2022-09-25T04:41:16;11.94;79.23
57709;SHT35;42558;52.388;13.390;2022-09-25T04:43:45;11.96;79.33
57709;SHT35;42558;52.388;13.390;2022-09-25T04:46:12;11.97;79.24
57709;SHT35;42558;52.388;13.390;2022-09-25T04:48:47;12.00;79.11
57709;SHT35;42558;52.388;13.390;2022-09-25T04:51:15;11.99;78.94
57709;SHT35;42558;52.388;13.390;2022-09-25T04:53:41;11.96;79.08
57709;SHT35;42558;52.388;13.390;2022-09-25T04:56:08;11.95;79.19
57709;SHT35;42558;52.388;13.390;2022-09-25T04:58:45;11.94;79.26
57709;SHT35;42558;52.388;13.390;2022-09-25T05:01:15;11.93;79.23
57709;SHT35;42558;52.388;13.390;2022-09-25T05:03:47;11.90;79.25
57709;SHT35;42558;52.388;13.390;2022-09-25T05:06:19;11.88;79.30
57709;SHT35;42558;52.388;13.390;2022-09-25T05:08:47;11.86;79.41
57709;SHT35;42558;52.388;13.390;2022-09-25T05:11:15;11.90;79.50
57709;SHT35;42558;52.388;13.390;2022-09-25T05:13:41;11.91;79.28
57709;SHT35;42558;52.388;13.390;2022-09-25T05:16:12;11.92;79.10
57709;SHT35;42558;52.388;13.390;2022-09-25T05:18:39;11.94;78.96
57709;SHT35;42558;52.388;13.390;2022-09-25T05:21:05;11.96;79.10
57709;SHT35;42558;52.388;13.390;2022-09-25T05:23:32;12.00;78.97
57709;SHT35;42558;52.388;13.390;2022-09-25T05:25:59;12.02;79.20
57709;SHT35;42558;52.388;13.390;2022-09-25T05:28:29;12.04;79.23
57709;SHT35;42558;52.388;13.390;2022-09-25T05:30:58;12.05;79.33
57709;SHT35;42558;52.388;13.390;2022-09-25T05:33:33;11.99;79.71
57709;SHT35;42558;52.388;13.390;2022-09-25T05:36:04;11.98;79.88
57709;SHT35;42558;52.388;13.390;2022-09-25T05:38:33;11.99;79.98
57709;SHT35;42558;52.388;13.390;2022-09-25T05:41:03;11.97;80.25
57709;SHT35;42558;52.388;13.390;2022-09-25T05:43:33;12.03;80.10
57709;SHT35;42558;52.388;13.390;2022-09-25T05:46:05;12.11;79.95
57709;SHT35;42558;52.388;13.390;2022-09-25T05:48:33;12.19;79.95
57709;SHT35;42558;52.388;13.390;2022-09-25T05:51:00;12.21;79.54
57709;SHT35;42558;52.388;13.390;2022-09-25T05:53:27;12.15;78.76
57709;SHT35;42558;52.388;13.390;2022-09-25T05:55:59;12.18;79.26
57709;SHT35;42558;52.388;13.390;2022-09-25T05:58:29;12.23;79.53
57709;SHT35;42558;52.388;13.390;2022-09-25T06:00:59;12.28;79.28
57709;SHT35;42558;52.388;13.390;2022-09-25T06:03:29;12.33;79.09
57709;SHT35;42558;52.388;13.390;2022-09-25T06:05:56;12.35;78.24
57709;SHT35;42558;52.388;13.390;2022-09-25T06:08:25;12.25;78.06
57709;SHT35;42558;52.388;13.390;2022-09-25T06:10:56;12.16;78.58
57709;SHT35;42558;52.388;13.390;2022-09-25T06:13:24;12.25;79.07
57709;SHT35;42558;52.388;13.390;2022-09-25T06:15:51;12.29;78.78
57709;SHT35;42558;52.388;13.390;2022-09-25T06:18:19;12.36;78.90
57709;SHT35;42558;52.388;13.390;2022-09-25T06:20:48;12.37;77.98
57709;SHT35;42558;52.388;13.390;2022-09-25T06:23:17;12.38;78.10
57709;SHT35;42558;52.388;13.390;2022-09-25T06:25:44;12.39;77.88
57709;SHT35;42558;52.388;13.390;2022-09-25T06:28:11;12.32;78.12
57709;SHT35;42558;52.388;13.390;2022-09-25T06:30:37;12.46;78.33
57709;SHT35;42558;52.388;13.390;2022-09-25T06:33:05;12.58;78.43
57709;SHT35;42558;52.388;13.390;2022-09-25T06:35:41;12.69;78.36
57709;SHT35;42558;52.388;13.390;2022-09-25T06:38:11;12.70;76.96
57709;SHT35;42558;52.388;13.390;2022-09-25T06:40:40;12.81;77.36
57709;SHT35;42558;52.388;13.390;2022-09-25T06:43:09;12.83;76.35
57709;SHT35;42558;52.388;13.390;2022-09-25T06:45:41;12.62;76.46
57709;SHT35;42558;52.388;13.390;2022-09-25T06:48:10;12.64;77.22
57709;SHT35;42558;52.388;13.390;2022-09-25T06:50:40;12.67;76.50
57709;SHT35;42558;52.388;13.390;2022-09-25T06:53:14;12.67;76.35
57709;SHT35;42558;52.388;13.390;2022-09-25T06:55:43;12.64;75.79
57709;SHT35;42558;52.388;13.390;2022-09-25T06:58:11;12.58;76.44
57709;SHT35;42558;52.388;13.390;2022-09-25T07:00:45;12.69;76.34
57709;SHT35;42558;52.388;13.390;2022-09-25T07:03:14;12.71;75.84
57709;SHT35;42558;52.388;13.390;2022-09-25T07:05:59;12.78;76.32
57709;SHT35;42558;52.388;13.390;2022-09-25T07:08:28;12.88;75.80
57709;SHT35;42558;52.388;13.390;2022-09-25T07:10:56;12.91;75.73
57709;SHT35;42558;52.388;13.390;2022-09-25T07:13:25;12.85;76.13
57709;SHT35;42558;52.388;13.390;2022-09-25T07:15:57;12.74;75.92
57709;SHT35;42558;52.388;13.390;2022-09-25T07:18:27;12.78;76.39
57709;SHT35;42558;52.388;13.390;2022-09-25T07:20:58;12.91;76.52
57709;SHT35;42558;52.388;13.390;2022-09-25T07:23:28;13.03;76.52
57709;SHT35;42558;52.388;13.390;2022-09-25T07:26:02;13.07;76.27
57709;SHT35;42558;52.388;13.390;2022-09-25T07:28:31;13.05;75.80
57709;SHT35;42558;52.388;13.390;2022-09-25T07:31:08;13.09;75.60
57709;SHT35;42558;52.388;13.390;2022-09-25T07:33:37;13.23;75.40
57709;SHT35;42558;52.388;13.390;2022-09-25T07:36:04;13.25;74.59
57709;SHT35;42558;52.388;13.390;2022-09-25T07:38:32;13.23;74.87
57709;SHT35;42558;52.388;13.390;2022-09-25T07:40:59;13.30;75.17
57709;SHT35;42558;52.388;13.390;2022-09-25T07:43:26;13.35;75.48
57709;SHT35;42558;52.388;13.390;2022-09-25T07:45:52;13.38;75.12
57709;SHT35;42558;52.388;13.390;2022-09-25T07:48:19;13.48;75.88
57709;SHT35;42558;52.388;13.390;2022-09-25T07:50:49;13.60;75.19
57709;SHT35;42558;52.388;13.390;2022-09-25T07:53:16;13.36;74.52
57709;SHT35;42558;52.388;13.390;2022-09-25T07:55:46;13.21;74.89
57709;SHT35;42558;52.388;13.390;2022-09-25T07:58:13;13.23;75.14
57709;SHT35;42558;52.388;13.390;2022-09-25T08:00:40;13.25;75.19
57709;SHT35;42558;52.388;13.390;2022-09-25T08:03:07;13.33;75.56
57709;SHT35;42558;52.388;13.390;2022-09-25T08:05:36;13.59;75.94
57709;SHT35;42558;52.388;13.390;2022-09-25T08:08:03;13.67;74.34
57709;SHT35;42558;52.388;13.390;2022-09-25T08:10:29;13.50;74.61
57709;SHT35;42558;52.388;13.390;2022-09-25T08:12:57;13.43;74.57
57709;SHT35;42558;52.388;13.390;2022-09-25T08:15:24;13.55;74.76
57709;SHT35;42558;52.388;13.390;2022-09-25T08:17:51;13.59;74.21
57709;SHT35;42558;52.388;13.390;2022-09-25T08:20:18;13.56;74.42
57709;SHT35;42558;52.388;13.390;2022-09-25T08:22:45;13.74;74.76
57709;SHT35;42558;52.388;13.390;2022-09-25T08:25:12;14.00;74.36
57709;SHT35;42558;52.388;13.390;2022-09-25T08:27:39;14.26;74.15
57709;SHT35;42558;52.388;13.390;2022-09-25T08:30:07;14.43;73.26
57709;SHT35;42558;52.388;13.390;2022-09-25T08:32:36;14.64;72.72
57709;SHT35;42558;52.388;13.390;2022-09-25T08:35:03;14.91;71.38
57709;SHT35;42558;52.388;13.390;2022-09-25T08:37:31;14.82;69.90
57709;SHT35;42558;52.388;13.390;2022-09-25T08:39:58;14.32;70.92
57709;SHT35;42558;52.388;13.390;2022-09-25T08:42:33;14.17;71.93
57709;SHT35;42558;52.388;13.390;2022-09-25T08:45:05;14.21;72.21
57709;SHT35;42558;52.388;13.390;2022-09-25T08:48:03;14.40;72.85
57709;SHT35;42558;52.388;13.390;2022-09-25T08:50:49;14.68;71.54
57709;SHT35;42558;52.388;13.390;2022-09-25T08:53:22;14.93;72.00
57709;SHT35;42558;52.388;13.390;2022-09-25T08:55:51;14.76;70.37
57709;SHT35;42558;52.388;13.390;2022-09-25T08:58:39;14.43;71.68
57709;SHT35;42558;52.388;13.390;2022-09-25T09:01:18;14.53;71.29
57709;SHT35;42558;52.388;13.390;2022-09-25T09:03:52;14.85;72.04
57709;SHT35;42558;52.388;13.390;2022-09-25T09:06:34;15.15;70.27
57709;SHT35;42558;52.388;13.390;2022-09-25T09:09:07;15.29;70.15
57709;SHT35;42558;52.388;13.390;2022-09-25T09:11:48;15.22;69.24
57709;SHT35;42558;52.388;13.390;2022-09-25T09:14:25;14.95;69.34
57709;SHT35;42558;52.388;13.390;2022-09-25T09:16:59;14.99;70.51
57709;SHT35;42558;52.388;13.390;2022-09-25T09:19:34;15.32;69.30
57709;SHT35;42558;52.388;13.390;2022-09-25T09:27:51;15.03;69.95
57709;SHT35;42558;52.388;13.390;2022-09-25T09:30:57;15.24;70.74
57709;SHT35;42558;52.388;13.390;2022-09-25T09:36:38;15.64;69.57
57709;SHT35;42558;52.388;13.390;2022-09-25T09:45:52;16.12;66.74
57709;SHT35;42558;52.388;13.390;2022-09-25T09:48:43;16.18;67.15
57709;SHT35;42558;52.388;13.390;2022-09-25T09:52:22;15.99;66.80
57709;SHT35;42558;52.388;13.390;2022-09-25T09:57:11;16.27;68.53
57709;SHT35;42558;52.388;13.390;2022-09-25T09:59:49;16.76;67.03
57709;SHT35;42558;52.388;13.390;2022-09-25T10:02:40;17.17;66.21
57709;SHT35;42558;52.388;13.390;2022-09-25T10:05:23;17.19;65.40
57709;SHT35;42558;52.388;13.390;2022-09-25T10:07:58;17.35;66.26
57709;SHT35;42558;52.388;13.390;2022-09-25T10:10:32;17.27;63.30
57709;SHT35;42558;52.388;13.390;2022-09-25T10:13:04;16.93;64.11
57709;SHT35;42558;52.388;13.390;2022-09-25T10:15:50;16.60;65.24
57709;SHT35;42558;52.388;13.390;2022-09-25T10:18:24;16.74;65.00
57709;SHT35;42558;52.388;13.390;2022-09-25T10:21:22;17.06;63.81
57709;SHT35;42558;52.388;13.390;2022-09-25T10:23:55;17.14;63.46
57709;SHT35;42558;52.388;13.390;2022-09-25T10:26:35;17.28;62.70
57709;SHT35;42558;52.388;13.390;2022-09-25T10:31:47;17.40;62.79
57709;SHT35;42558;52.388;13.390;2022-09-25T10:34:29;17.41;63.31
57709;SHT35;42558;52.388;13.390;2022-09-25T10:36:57;17.48;62.74
57709;SHT35;42558;52.388;13.390;2022-09-25T10:39:59;17.40;62.84
57709;SHT35;42558;52.388;13.390;2022-09-25T10:42:33;16.96;64.25
57709;SHT35;42558;52.388;13.390;2022-09-25T10:48:20;17.23;64.65
57709;SHT35;42558;52.388;13.390;2022-09-25T10:51:07;17.25;64.65
57709;SHT35;42558;52.388;13.390;2022-09-25T10:53:36;17.23;63.67
57709;SHT35;42558;52.388;13.390;2022-09-25T10:56:06;17.33;63.89
57709;SHT35;42558;52.388;13.390;2022-09-25T10:58:45;17.46;64.15
57709;SHT35;42558;52.388;13.390;2022-09-25T11:01:29;17.42;63.97
57709;SHT35;42558;52.388;13.390;2022-09-25T11:04:05;17.39;62.81
57709;SHT35;42558;52.388;13.390;2022-09-25T11:07:00;17.23;62.48
57709;SHT35;42558;52.388;13.390;2022-09-25T11:09:33;17.18;63.95
57709;SHT35;42558;52.388;13.390;2022-09-25T11:12:24;17.19;63.80
57709;SHT35;42558;52.388;13.390;2022-09-25T11:14:55;17.26;64.61
57709;SHT35;42558;52.388;13.390;2022-09-25T11:17:31;17.36;63.88
57709;SHT35;42558;52.388;13.390;2022-09-25T11:22:45;17.71;63.70
57709;SHT35;42558;52.388;13.390;2022-09-25T11:25:20;17.79;62.51
57709;SHT35;42558;52.388;13.390;2022-09-25T11:27:57;17.80;62.07
57709;SHT35;42558;52.388;13.390;2022-09-25T11:30:38;17.78;61.89
57709;SHT35;42558;52.388;13.390;2022-09-25T11:33:22;17.82;62.32
57709;SHT35;42558;52.388;13.390;2022-09-25T11:36:05;17.89;61.68
57709;SHT35;42558;52.388;13.390;2022-09-25T11:38:49;18.02;61.96
57709;SHT35;42558;52.388;13.390;2022-09-25T11:45:13;18.17;61.15
57709;SHT35;42558;52.388;13.390;2022-09-25T11:50:40;18.27;59.19
57709;SHT35;42558;52.388;13.390;2022-09-25T11:53:52;18.40;57.93
57709;SHT35;42558;52.388;13.390;2022-09-25T11:57:02;18.62;58.42
57709;SHT35;42558;52.388;13.390;2022-09-25T12:12:01;18.77;55.96
57709;SHT35;42558;52.388;13.390;2022-09-25T12:17:43;18.68;57.98
57709;SHT35;42558;52.388;13.390;2022-09-25T12:20:37;18.62;57.71
57709;SHT35;42558;52.388;13.390;2022-09-25T12:23:49;18.69;58.40
57709;SHT35;42558;52.388;13.390;2022-09-25T12:37:56;18.96;58.40
57709;SHT35;42558;52.388;13.390;2022-09-25T12:40:45;19.17;57.74
57709;SHT35;42558;52.388;13.390;2022-09-25T12:43:32;19.36;57.77
57709;SHT35;42558;52.388;13.390;2022-09-25T12:49:39;19.35;56.81
57709;SHT35;42558;52.388;13.390;2022-09-25T12:52:25;19.33;56.22
57709;SHT35;42558;52.388;13.390;2022-09-25T12:55:11;19.04;57.16
57709;SHT35;42558;52.388;13.390;2022-09-25T12:57:48;19.11;56.13
57709;SHT35;42558;52.388;13.390;2022-09-25T13:00:47;19.12;53.48
57709;SHT35;42558;52.388;13.390;2022-09-25T13:06:16;19.23;53.15
57709;SHT35;42558;52.388;13.390;2022-09-25T13:09:05;19.13;52.68
57709;SHT35;42558;52.388;13.390;2022-09-25T13:15:06;19.02;55.06
57709;SHT35;42558;52.388;13.390;2022-09-25T13:17:48;19.19;55.51
57709;SHT35;42558;52.388;13.390;2022-09-25T13:23:09;19.29;55.18
57709;SHT35;42558;52.388;13.390;2022-09-25T13:25:45;18.68;55.80
57709;SHT35;42558;52.388;13.390;2022-09-25T13:28:24;18.53;57.73
57709;SHT35;42558;52.388;13.390;2022-09-25T13:31:11;18.72;57.94
57709;SHT35;42558;52.388;13.390;2022-09-25T13:33:50;18.77;57.78
57709;SHT35;42558;52.388;13.390;2022-09-25T13:39:30;18.55;56.82
57709;SHT35;42558;52.388;13.390;2022-09-25T13:42:48;18.80;56.66
57709;SHT35;42558;52.388;13.390;2022-09-25T13:47:57;19.03;57.97
57709;SHT35;42558;52.388;13.390;2022-09-25T13:50:34;19.00;56.79
57709;SHT35;42558;52.388;13.390;2022-09-25T13:58:18;18.91;58.68
57709;SHT35;42558;52.388;13.390;2022-09-25T14:06:10;18.65;57.11
57709;SHT35;42558;52.388;13.390;2022-09-25T14:09:10;18.76;57.78
57709;SHT35;42558;52.388;13.390;2022-09-25T14:11:49;18.77;55.73
57709;SHT35;42558;52.388;13.390;2022-09-25T14:14:44;18.74;56.48
57709;SHT35;42558;52.388;13.390;2022-09-25T14:17:22;19.24;56.40
57709;SHT35;42558;52.388;13.390;2022-09-25T14:19:55;19.40;56.42
57709;SHT35;42558;52.388;13.390;2022-09-25T14:22:47;19.65;55.66
57709;SHT35;42558;52.388;13.390;2022-09-25T14:25:28;19.69;54.60
57709;SHT35;42558;52.388;13.390;2022-09-25T14:28:14;18.84;55.12
57709;SHT35;42558;52.388;13.390;2022-09-25T14:31:03;18.82;56.44
57709;SHT35;42558;52.388;13.390;2022-09-25T14:40:48;19.03;57.28
57709;SHT35;42558;52.388;13.390;2022-09-25T14:45:57;18.72;59.85
57709;SHT35;42558;52.388;13.390;2022-09-25T14:48:47;18.57;61.12
57709;SHT35;42558;52.388;13.390;2022-09-25T14:54:00;18.48;61.11
57709;SHT35;42558;52.388;13.390;2022-09-25T14:56:31;18.46;61.34
57709;SHT35;42558;52.388;13.390;2022-09-25T14:59:06;18.45;61.93
57709;SHT35;42558;52.388;13.390;2022-09-25T15:01:44;18.39;63.13
57709;SHT35;42558;52.388;13.390;2022-09-25T15:04:26;18.40;62.45
57709;SHT35;42558;52.388;13.390;2022-09-25T15:07:02;18.41;62.09
57709;SHT35;42558;52.388;13.390;2022-09-25T15:09:36;18.42;63.16
57709;SHT35;42558;52.388;13.390;2022-09-25T15:12:15;18.43;62.46
57709;SHT35;42558;52.388;13.390;2022-09-25T15:17:28;18.32;63.91
57709;SHT35;42558;52.388;13.390;2022-09-25T15:19:59;18.26;64.42
57709;SHT35;42558;52.388;13.390;2022-09-25T15:22:31;18.21;64.83
57709;SHT35;42558;52.388;13.390;2022-09-25T15:25:05;18.20;64.87
57709;SHT35;42558;52.388;13.390;2022-09-25T15:27:34;18.16;65.31
57709;SHT35;42558;52.388;13.390;2022-09-25T15:30:13;18.08;65.13
57709;SHT35;42558;52.388;13.390;2022-09-25T15:32:42;17.98;65.54
57709;SHT35;42558;52.388;13.390;2022-09-25T15:35:14;17.89;65.92
57709;SHT35;42558;52.388;13.390;2022-09-25T15:37:47;17.82;66.18
57709;SHT35;42558;52.388;13.390;2022-09-25T15:42:44;17.67;66.44
57709;SHT35;42558;52.388;13.390;2022-09-25T15:50:56;17.48;66.90
57709;SHT35;42558;52.388;13.390;2022-09-25T15:53:31;17.48;66.92
57709;SHT35;42558;52.388;13.390;2022-09-25T15:58:54;17.42;67.60
57709;SHT35;42558;52.388;13.390;2022-09-25T16:01:28;17.46;67.96
57709;SHT35;42558;52.388;13.390;2022-09-25T16:04:18;17.40;67.74
57709;SHT35;42558;52.388;13.390;2022-09-25T16:10:00;17.34;68.16
57709;SHT35;42558;52.388;13.390;2022-09-25T16:12:49;17.27;68.33
57709;SHT35;42558;52.388;13.390;2022-09-25T16:17:53;17.20;68.39
57709;SHT35;42558;52.388;13.390;2022-09-25T16:20:43;17.10;68.40
57709;SHT35;42558;52.388;13.390;2022-09-25T16:23:24;17.07;68.91
57709;SHT35;42558;52.388;13.390;2022-09-25T16:25:55;17.02;68.60
57709;SHT35;42558;52.388;13.390;2022-09-25T16:28:26;16.94;68.92
57709;SHT35;42558;52.388;13.390;2022-09-25T16:30:58;16.88;69.12
57709;SHT35;42558;52.388;13.390;2022-09-25T16:33:36;16.83;68.91
57709;SHT35;42558;52.388;13.390;2022-09-25T16:36:12;16.76;69.13
57709;SHT35;42558;52.388;13.390;2022-09-25T16:41:36;16.65;69.35
57709;SHT35;42558;52.388;13.390;2022-09-25T16:44:18;16.63;69.53
57709;SHT35;42558;52.388;13.390;2022-09-25T16:49:22;16.53;69.87
57709;SHT35;42558;52.388;13.390;2022-09-25T16:51:50;16.50;69.89
57709;SHT35;42558;52.388;13.390;2022-09-25T16:54:20;16.48;70.03
57709;SHT35;42558;52.388;13.390;2022-09-25T16:56:56;16.45;70.26
57709;SHT35;42558;52.388;13.390;2022-09-25T16:59:25;16.41;70.31
57709;SHT35;42558;52.388;13.390;2022-09-25T17:01:57;16.35;70.41
57709;SHT35;42558;52.388;13.390;2022-09-25T17:04:30;16.31;70.81
57709;SHT35;42558;52.388;13.390;2022-09-25T17:06:58;16.27;70.69
57709;SHT35;42558;52.388;13.390;2022-09-25T17:09:26;16.24;70.87
57709;SHT35;42558;52.388;13.390;2022-09-25T17:11:57;16.20;71.03
57709;SHT35;42558;52.388;13.390;2022-09-25T17:14:30;16.17;71.09
57709;SHT35;42558;52.388;13.390;2022-09-25T17:16:57;16.15;71.10
57709;SHT35;42558;52.388;13.390;2022-09-25T17:19:24;16.14;71.26
57709;SHT35;42558;52.388;13.390;2022-09-25T17:21:52;16.10;71.38
57709;SHT35;42558;52.388;13.390;2022-09-25T17:24:24;16.07;71.50
57709;SHT35;42558;52.388;13.390;2022-09-25T17:26:52;16.02;71.63
57709;SHT35;42558;52.388;13.390;2022-09-25T17:29:20;16.02;71.72
57709;SHT35;42558;52.388;13.390;2022-09-25T17:31:47;16.01;71.84
57709;SHT35;42558;52.388;13.390;2022-09-25T17:34:18;15.99;71.85
57709;SHT35;42558;52.388;13.390;2022-09-25T17:36:53;15.95;71.95
57709;SHT35;42558;52.388;13.390;2022-09-25T17:39:21;15.91;72.35
57709;SHT35;42558;52.388;13.390;2022-09-25T17:41:48;15.89;71.91
57709;SHT35;42558;52.388;13.390;2022-09-25T17:44:16;15.84;72.12
57709;SHT35;42558;52.388;13.390;2022-09-25T17:46:47;15.82;72.32
57709;SHT35;42558;52.388;13.390;2022-09-25T17:49:15;15.79;72.36
57709;SHT35;42558;52.388;13.390;2022-09-25T17:51:43;15.74;72.73
57709;SHT35;42558;52.388;13.390;2022-09-25T17:54:10;15.70;72.86
57709;SHT35;42558;52.388;13.390;2022-09-25T17:56:38;15.67;72.71
57709;SHT35;42558;52.388;13.390;2022-09-25T17:59:08;15.62;72.92
57709;SHT35;42558;52.388;13.390;2022-09-25T18:01:35;15.52;73.09
57709;SHT35;42558;52.388;13.390;2022-09-25T18:04:17;15.47;73.43
57709;SHT35;42558;52.388;13.390;2022-09-25T18:06:46;15.42;73.53
57709;SHT35;42558;52.388;13.390;2022-09-25T18:09:13;15.37;73.76
57709;SHT35;42558;52.388;13.390;2022-09-25T18:11:40;15.32;74.10
57709;SHT35;42558;52.388;13.390;2022-09-25T18:14:10;15.29;74.27
57709;SHT35;42558;52.388;13.390;2022-09-25T18:16:39;15.25;74.41
57709;SHT35;42558;52.388;13.390;2022-09-25T18:19:13;15.25;74.47
57709;SHT35;42558;52.388;13.390;2022-09-25T18:22:02;15.23;74.66
57709;SHT35;42558;52.388;13.390;2022-09-25T18:24:47;15.22;74.98
57709;SHT35;42558;52.388;13.390;2022-09-25T18:27:23;15.17;75.16
57709;SHT35;42558;52.388;13.390;2022-09-25T18:29:55;15.13;75.43
57709;SHT35;42558;52.388;13.390;2022-09-25T18:32:23;15.11;75.21
57709;SHT35;42558;52.388;13.390;2022-09-25T18:34:49;15.10;74.72